sensor_id;sensor_type;location;lat;lon;timestamp;temperature;humidity
59651;DHT22;45954;49.768;8.636;2023-04-08T00:00:36;10.40;99.90
59651;DHT22;45954;49.768;8.636;2023-04-08T00:03:02;10.40;99.90
59651;DHT22;45954;49.768;8.636;2023-04-08T00:05:28;10.40;99.90
59651;DHT22;45954;49.768;8.636;2023-04-08T00:07:54;10.40;99.90
59651;DHT22;45954;49.768;8.636;2023-04-08T00:10:20;10.40;99.90
59651;DHT22;45954;49.768;8.636;2023-04-08T00:12:47;10.40;99.90
59651;DHT22;45954;49.768;8.636;2023-04-08T00:15:13;10.40;99.90
59651;DHT22;45954;49.768;8.636;2023-04-08T00:17:39;10.40;99.90
59651;DHT22;45954;49.768;8.636;2023-04-08T00:20:06;10.40;99.90
59651;DHT22;45954;49.768;8.636;2023-04-08T00:22:32;10.40;99.90
59651;DHT22;45954;49.768;8.636;2023-04-08T00:24:58;10.30;99.90
59651;DHT22;45954;49.768;8.636;2023-04-08T00:27:24;10.10;99.90
59651;DHT22;45954;49.768;8.636;2023-04-08T00:29:50;10.10;99.90
59651;DHT22;45954;49.768;8.636;2023-04-08T00:32:16;10.00;99.90
59651;DHT22;45954;49.768;8.636;2023-04-08T00:34:42;10.00;99.90
59651;DHT22;45954;49.768;8.636;2023-04-08T00:37:08;10.10;99.90
59651;DHT22;45954;49.768;8.636;2023-04-08T00:39:34;10.20;99.90
59651;DHT22;45954;49.768;8.636;2023-04-08T00:42:00;10.30;99.90
59651;DHT22;45954;49.768;8.636;2023-04-08T00:44:26;10.30;99.90
59651;DHT22;45954;49.768;8.636;2023-04-08T00:46:53;10.30;99.90
59651;DHT22;45954;49.768;8.636;2023-04-08T00:49:19;10.10;99.90
59651;DHT22;45954;49.768;8.636;2023-04-08T00:51:45;10.10;99.90
59651;DHT22;45954;49.768;8.636;2023-04-08T00:54:11;10.10;99.90
59651;DHT22;45954;49.768;8.636;2023-04-08T00:56:37;10.20;99.90
59651;DHT22;45954;49.768;8.636;2023-04-08T00:59:04;10.10;99.90
59651;DHT22;45954;49.768;8.636;2023-04-08T01:01:50;10.00;99.90
59651;DHT22;45954;49.768;8.636;2023-04-08T01:04:55;10.00;99.90
59651;DHT22;45954;49.768;8.636;2023-04-08T01:07:37;10.10;99.90
59651;DHT22;45954;49.768;8.636;2023-04-08T01:10:29;10.10;99.90
59651;DHT22;45954;49.768;8.636;2023-04-08T01:12:59;10.10;99.90
59651;DHT22;45954;49.768;8.636;2023-04-08T01:15:30;10.10;99.90
59651;DHT22;45954;49.768;8.636;2023-04-08T01:17:58;10.10;99.90
59651;DHT22;45954;49.768;8.636;2023-04-08T01:20:28;10.00;99.90
59651;DHT22;45954;49.768;8.636;2023-04-08T01:25:33;10.00;99.90
59651;DHT22;45954;49.768;8.636;2023-04-08T01:28:06;10.00;99.90
59651;DHT22;45954;49.768;8.636;2023-04-08T01:30:37;10.00;99.90
59651;DHT22;45954;49.768;8.636;2023-04-08T01:33:05;10.00;99.90
59651;DHT22;45954;49.768;8.636;2023-04-08T01:35:32;10.00;99.90
59651;DHT22;45954;49.768;8.636;2023-04-08T01:37:59;10.00;99.90
59651;DHT22;45954;49.768;8.636;2023-04-08T01:40:26;10.00;99.90
59651;DHT22;45954;49.768;8.636;2023-04-08T01:42:57;10.00;99.90
59651;DHT22;45954;49.768;8.636;2023-04-08T01:45:24;10.00;99.90
59651;DHT22;45954;49.768;8.636;2023-04-08T01:47:52;9.90;99.90
59651;DHT22;45954;49.768;8.636;2023-04-08T01:50:19;10.00;99.90
59651;DHT22;45954;49.768;8.636;2023-04-08T01:52:48;10.00;99.90
59651;DHT22;45954;49.768;8.636;2023-04-08T01:55:17;10.00;99.90
59651;DHT22;45954;49.768;8.636;2023-04-08T01:57:48;10.00;99.90
59651;DHT22;45954;49.768;8.636;2023-04-08T02:00:20;10.00;99.90
59651;DHT22;45954;49.768;8.636;2023-04-08T02:02:50;10.00;99.90
59651;DHT22;45954;49.768;8.636;2023-04-08T02:05:16;10.00;99.90
59651;DHT22;45954;49.768;8.636;2023-04-08T02:07:42;10.10;99.90
59651;DHT22;45954;49.768;8.636;2023-04-08T02:10:10;10.00;99.90
59651;DHT22;45954;49.768;8.636;2023-04-08T02:12:36;10.00;99.90
59651;DHT22;45954;49.768;8.636;2023-04-08T02:15:02;10.00;99.90
59651;DHT22;45954;49.768;8.636;2023-04-08T02:17:48;9.90;99.90
59651;DHT22;45954;49.768;8.636;2023-04-08T02:20:30;9.90;99.90
59651;DHT22;45954;49.768;8.636;2023-04-08T02:23:21;9.90;99.90
59651;DHT22;45954;49.768;8.636;2023-04-08T02:25:53;10.00;99.90
59651;DHT22;45954;49.768;8.636;2023-04-08T02:28:21;10.00;99.90
59651;DHT22;45954;49.768;8.636;2023-04-08T02:30:51;9.90;99.90
59651;DHT22;45954;49.768;8.636;2023-04-08T02:33:19;10.00;99.90
59651;DHT22;45954;49.768;8.636;2023-04-08T02:35:48;10.00;99.90
59651;DHT22;45954;49.768;8.636;2023-04-08T02:38:15;9.90;99.90
59651;DHT22;45954;49.768;8.636;2023-04-08T02:40:41;9.90;99.90
59651;DHT22;45954;49.768;8.636;2023-04-08T02:43:07;9.90;99.90
59651;DHT22;45954;49.768;8.636;2023-04-08T02:45:43;9.90;99.90
59651;DHT22;45954;49.768;8.636;2023-04-08T02:48:10;9.80;99.90
59651;DHT22;45954;49.768;8.636;2023-04-08T02:50:36;9.80;99.90
59651;DHT22;45954;49.768;8.636;2023-04-08T02:53:02;9.80;99.90
59651;DHT22;45954;49.768;8.636;2023-04-08T02:55:28;9.80;99.90
59651;DHT22;45954;49.768;8.636;2023-04-08T02:57:54;9.80;99.90
59651;DHT22;45954;49.768;8.636;2023-04-08T03:00:20;9.80;99.90
59651;DHT22;45954;49.768;8.636;2023-04-08T03:02:46;9.80;99.90
59651;DHT22;45954;49.768;8.636;2023-04-08T03:05:12;9.80;99.90
59651;DHT22;45954;49.768;8.636;2023-04-08T03:07:38;9.90;99.90
59651;DHT22;45954;49.768;8.636;2023-04-08T03:10:04;9.90;99.90
59651;DHT22;45954;49.768;8.636;2023-04-08T03:12:31;9.80;99.90
59651;DHT22;45954;49.768;8.636;2023-04-08T03:14:57;9.80;99.90
59651;DHT22;45954;49.768;8.636;2023-04-08T03:17:23;9.80;99.90
59651;DHT22;45954;49.768;8.636;2023-04-08T03:19:49;9.80;99.90
59651;DHT22;45954;49.768;8.636;2023-04-08T03:22:15;9.70;99.90
59651;DHT22;45954;49.768;8.636;2023-04-08T03:24:41;9.70;99.90
59651;DHT22;45954;49.768;8.636;2023-04-08T03:27:06;9.60;99.90
59651;DHT22;45954;49.768;8.636;2023-04-08T03:29:33;9.60;99.90
59651;DHT22;45954;49.768;8.636;2023-04-08T03:31:58;9.60;99.90
59651;DHT22;45954;49.768;8.636;2023-04-08T03:34:24;9.60;99.90
59651;DHT22;45954;49.768;8.636;2023-04-08T03:36:50;9.50;99.90
59651;DHT22;45954;49.768;8.636;2023-04-08T03:39:16;9.50;99.90
59651;DHT22;45954;49.768;8.636;2023-04-08T03:41:42;9.30;99.90
59651;DHT22;45954;49.768;8.636;2023-04-08T03:44:08;9.20;99.90
59651;DHT22;45954;49.768;8.636;2023-04-08T03:46:34;9.30;99.90
59651;DHT22;45954;49.768;8.636;2023-04-08T03:49:00;9.20;99.90
59651;DHT22;45954;49.768;8.636;2023-04-08T03:51:25;9.20;99.90
59651;DHT22;45954;49.768;8.636;2023-04-08T03:53:53;9.20;99.90
59651;DHT22;45954;49.768;8.636;2023-04-08T03:56:18;9.20;99.90
59651;DHT22;45954;49.768;8.636;2023-04-08T03:58:45;9.10;99.90
59651;DHT22;45954;49.768;8.636;2023-04-08T04:01:10;9.20;99.90
59651;DHT22;45954;49.768;8.636;2023-04-08T04:03:36;9.20;99.90
59651;DHT22;45954;49.768;8.636;2023-04-08T04:06:02;9.10;99.90
59651;DHT22;45954;49.768;8.636;2023-04-08T04:08:28;9.20;99.90
59651;DHT22;45954;49.768;8.636;2023-04-08T04:10:54;9.10;99.90
59651;DHT22;45954;49.768;8.636;2023-04-08T04:13:20;9.10;99.90
59651;DHT22;45954;49.768;8.636;2023-04-08T04:15:46;9.00;99.90
59651;DHT22;45954;49.768;8.636;2023-04-08T04:18:12;9.00;99.90
59651;DHT22;45954;49.768;8.636;2023-04-08T04:20:41;8.90;99.90
59651;DHT22;45954;49.768;8.636;2023-04-08T04:23:08;8.90;99.90
59651;DHT22;45954;49.768;8.636;2023-04-08T04:25:34;8.70;99.90
59651;DHT22;45954;49.768;8.636;2023-04-08T04:28:00;8.80;99.90
59651;DHT22;45954;49.768;8.636;2023-04-08T04:30:27;8.80;99.90
59651;DHT22;45954;49.768;8.636;2023-04-08T04:32:53;8.80;99.90
59651;DHT22;45954;49.768;8.636;2023-04-08T04:35:20;8.80;99.90
59651;DHT22;45954;49.768;8.636;2023-04-08T04:37:46;8.80;99.90
59651;DHT22;45954;49.768;8.636;2023-04-08T04:40:14;8.90;99.90
59651;DHT22;45954;49.768;8.636;2023-04-08T04:42:40;8.90;99.90
59651;DHT22;45954;49.768;8.636;2023-04-08T04:45:07;8.80;99.90
59651;DHT22;45954;49.768;8.636;2023-04-08T04:47:34;8.80;99.90
59651;DHT22;45954;49.768;8.636;2023-04-08T04:49:59;8.80;99.90
59651;DHT22;45954;49.768;8.636;2023-04-08T04:52:25;8.70;99.90
59651;DHT22;45954;49.768;8.636;2023-04-08T04:54:51;8.70;99.90
59651;DHT22;45954;49.768;8.636;2023-04-08T04:57:17;8.70;99.90
59651;DHT22;45954;49.768;8.636;2023-04-08T04:59:43;8.60;99.90
59651;DHT22;45954;49.768;8.636;2023-04-08T05:02:09;8.50;99.90
59651;DHT22;45954;49.768;8.636;2023-04-08T05:04:34;8.50;99.90
59651;DHT22;45954;49.768;8.636;2023-04-08T05:07:00;8.50;99.90
59651;DHT22;45954;49.768;8.636;2023-04-08T05:09:26;8.50;99.90
59651;DHT22;45954;49.768;8.636;2023-04-08T05:11:53;8.40;99.90
59651;DHT22;45954;49.768;8.636;2023-04-08T05:14:19;8.50;99.90
59651;DHT22;45954;49.768;8.636;2023-04-08T05:16:45;8.40;99.90
59651;DHT22;45954;49.768;8.636;2023-04-08T05:19:11;8.40;99.90
59651;DHT22;45954;49.768;8.636;2023-04-08T05:21:36;8.50;99.90
59651;DHT22;45954;49.768;8.636;2023-04-08T05:24:02;8.50;99.90
59651;DHT22;45954;49.768;8.636;2023-04-08T05:26:28;8.50;99.90
59651;DHT22;45954;49.768;8.636;2023-04-08T05:28:54;8.40;99.90
59651;DHT22;45954;49.768;8.636;2023-04-08T05:31:20;8.40;99.90
59651;DHT22;45954;49.768;8.636;2023-04-08T05:33:47;8.30;99.90
59651;DHT22;45954;49.768;8.636;2023-04-08T05:36:13;8.30;99.90
59651;DHT22;45954;49.768;8.636;2023-04-08T05:38:39;8.30;99.90
59651;DHT22;45954;49.768;8.636;2023-04-08T05:41:07;8.30;99.90
59651;DHT22;45954;49.768;8.636;2023-04-08T05:43:33;8.30;99.90
59651;DHT22;45954;49.768;8.636;2023-04-08T05:45:59;8.20;99.90
59651;DHT22;45954;49.768;8.636;2023-04-08T05:48:25;8.20;99.90
59651;DHT22;45954;49.768;8.636;2023-04-08T05:50:51;8.20;99.90
59651;DHT22;45954;49.768;8.636;2023-04-08T05:53:17;8.20;99.90
59651;DHT22;45954;49.768;8.636;2023-04-08T05:55:42;8.10;99.90
59651;DHT22;45954;49.768;8.636;2023-04-08T05:58:08;8.00;99.90
59651;DHT22;45954;49.768;8.636;2023-04-08T06:00:34;8.00;99.90
59651;DHT22;45954;49.768;8.636;2023-04-08T06:03:00;7.90;99.90
59651;DHT22;45954;49.768;8.636;2023-04-08T06:05:26;7.90;99.90
59651;DHT22;45954;49.768;8.636;2023-04-08T06:07:51;7.80;99.90
59651;DHT22;45954;49.768;8.636;2023-04-08T06:10:17;7.90;99.90
59651;DHT22;45954;49.768;8.636;2023-04-08T06:12:43;7.80;99.90
59651;DHT22;45954;49.768;8.636;2023-04-08T06:15:09;8.00;99.90
59651;DHT22;45954;49.768;8.636;2023-04-08T06:17:36;8.00;99.90
59651;DHT22;45954;49.768;8.636;2023-04-08T06:20:03;7.80;99.90
59651;DHT22;45954;49.768;8.636;2023-04-08T06:22:34;7.70;99.90
59651;DHT22;45954;49.768;8.636;2023-04-08T06:25:01;7.70;99.90
59651;DHT22;45954;49.768;8.636;2023-04-08T06:27:27;7.70;99.90
59651;DHT22;45954;49.768;8.636;2023-04-08T06:29:53;7.60;99.90
59651;DHT22;45954;49.768;8.636;2023-04-08T06:32:20;7.60;99.90
59651;DHT22;45954;49.768;8.636;2023-04-08T06:34:47;7.70;99.90
59651;DHT22;45954;49.768;8.636;2023-04-08T06:37:13;7.70;99.90
59651;DHT22;45954;49.768;8.636;2023-04-08T06:39:39;7.70;99.90
59651;DHT22;45954;49.768;8.636;2023-04-08T06:42:06;7.80;99.90
59651;DHT22;45954;49.768;8.636;2023-04-08T06:44:32;8.00;99.90
59651;DHT22;45954;49.768;8.636;2023-04-08T06:46:57;8.10;99.90
59651;DHT22;45954;49.768;8.636;2023-04-08T06:49:23;8.40;99.90
59651;DHT22;45954;49.768;8.636;2023-04-08T06:51:49;8.40;99.90
59651;DHT22;45954;49.768;8.636;2023-04-08T06:54:15;8.50;99.90
59651;DHT22;45954;49.768;8.636;2023-04-08T06:56:41;8.50;99.90
59651;DHT22;45954;49.768;8.636;2023-04-08T06:59:07;8.40;99.90
59651;DHT22;45954;49.768;8.636;2023-04-08T07:01:33;8.60;99.90
59651;DHT22;45954;49.768;8.636;2023-04-08T07:03:59;8.70;99.90
59651;DHT22;45954;49.768;8.636;2023-04-08T07:06:27;8.60;99.90
59651;DHT22;45954;49.768;8.636;2023-04-08T07:08:52;8.90;99.90
59651;DHT22;45954;49.768;8.636;2023-04-08T07:11:18;9.00;99.90
59651;DHT22;45954;49.768;8.636;2023-04-08T07:13:45;9.10;99.90
59651;DHT22;45954;49.768;8.636;2023-04-08T07:16:11;9.00;99.90
59651;DHT22;45954;49.768;8.636;2023-04-08T07:18:37;9.00;99.90
59651;DHT22;45954;49.768;8.636;2023-04-08T07:21:03;8.90;99.90
59651;DHT22;45954;49.768;8.636;2023-04-08T07:23:29;9.00;99.90
59651;DHT22;45954;49.768;8.636;2023-04-08T07:25:54;9.10;99.90
59651;DHT22;45954;49.768;8.636;2023-04-08T07:28:20;9.10;99.90
59651;DHT22;45954;49.768;8.636;2023-04-08T07:30:46;9.20;99.90
59651;DHT22;45954;49.768;8.636;2023-04-08T07:33:12;9.30;99.90
59651;DHT22;45954;49.768;8.636;2023-04-08T07:35:39;9.50;99.90
59651;DHT22;45954;49.768;8.636;2023-04-08T07:38:06;9.60;99.90
59651;DHT22;45954;49.768;8.636;2023-04-08T07:40:36;9.60;99.90
59651;DHT22;45954;49.768;8.636;2023-04-08T07:43:01;9.50;99.90
59651;DHT22;45954;49.768;8.636;2023-04-08T07:45:27;9.50;99.90
59651;DHT22;45954;49.768;8.636;2023-04-08T07:47:53;9.30;99.90
59651;DHT22;45954;49.768;8.636;2023-04-08T07:50:19;9.30;99.90
59651;DHT22;45954;49.768;8.636;2023-04-08T07:52:45;9.40;99.90
59651;DHT22;45954;49.768;8.636;2023-04-08T07:55:11;9.30;99.90
59651;DHT22;45954;49.768;8.636;2023-04-08T07:57:37;9.50;99.90
59651;DHT22;45954;49.768;8.636;2023-04-08T08:00:03;9.70;99.90
59651;DHT22;45954;49.768;8.636;2023-04-08T08:02:29;9.90;99.90
59651;DHT22;45954;49.768;8.636;2023-04-08T08:04:55;10.00;99.90
59651;DHT22;45954;49.768;8.636;2023-04-08T08:07:21;10.00;99.90
59651;DHT22;45954;49.768;8.636;2023-04-08T08:09:47;10.10;99.90
59651;DHT22;45954;49.768;8.636;2023-04-08T08:12:12;10.30;99.90
59651;DHT22;45954;49.768;8.636;2023-04-08T08:14:38;10.40;99.90
59651;DHT22;45954;49.768;8.636;2023-04-08T08:17:04;10.30;99.90
59651;DHT22;45954;49.768;8.636;2023-04-08T08:19:30;10.30;99.90
59651;DHT22;45954;49.768;8.636;2023-04-08T08:21:56;10.30;99.90
59651;DHT22;45954;49.768;8.636;2023-04-08T08:24:22;10.40;99.90
59651;DHT22;45954;49.768;8.636;2023-04-08T08:26:48;10.60;99.90
59651;DHT22;45954;49.768;8.636;2023-04-08T08:29:13;10.90;99.90
59651;DHT22;45954;49.768;8.636;2023-04-08T08:31:40;10.90;99.90
59651;DHT22;45954;49.768;8.636;2023-04-08T08:34:06;11.00;99.90
59651;DHT22;45954;49.768;8.636;2023-04-08T08:36:31;11.00;99.90
59651;DHT22;45954;49.768;8.636;2023-04-08T08:38:57;11.00;99.90
59651;DHT22;45954;49.768;8.636;2023-04-08T08:41:23;10.90;99.90
59651;DHT22;45954;49.768;8.636;2023-04-08T08:43:49;10.90;99.90
59651;DHT22;45954;49.768;8.636;2023-04-08T08:46:17;10.90;99.90
59651;DHT22;45954;49.768;8.636;2023-04-08T08:48:44;11.00;99.90
59651;DHT22;45954;49.768;8.636;2023-04-08T08:51:12;11.10;99.90
59651;DHT22;45954;49.768;8.636;2023-04-08T08:53:38;11.00;99.70
59651;DHT22;45954;49.768;8.636;2023-04-08T08:56:08;11.10;99.90
59651;DHT22;45954;49.768;8.636;2023-04-08T08:58:34;11.10;99.80
59651;DHT22;45954;49.768;8.636;2023-04-08T09:01:00;11.20;99.90
59651;DHT22;45954;49.768;8.636;2023-04-08T09:03:27;11.20;99.60
59651;DHT22;45954;49.768;8.636;2023-04-08T09:05:55;11.10;99.70
59651;DHT22;45954;49.768;8.636;2023-04-08T09:08:27;11.10;99.70
59651;DHT22;45954;49.768;8.636;2023-04-08T09:10:54;11.20;99.60
59651;DHT22;45954;49.768;8.636;2023-04-08T09:13:23;11.20;99.50
59651;DHT22;45954;49.768;8.636;2023-04-08T09:16:04;11.20;99.30
59651;DHT22;45954;49.768;8.636;2023-04-08T09:18:36;11.40;99.40
59651;DHT22;45954;49.768;8.636;2023-04-08T09:21:06;11.40;99.00
59651;DHT22;45954;49.768;8.636;2023-04-08T09:23:37;11.40;97.90
59651;DHT22;45954;49.768;8.636;2023-04-08T09:26:18;11.40;98.20
59651;DHT22;45954;49.768;8.636;2023-04-08T09:29:03;11.50;97.90
59651;DHT22;45954;49.768;8.636;2023-04-08T09:31:32;11.70;98.30
59651;DHT22;45954;49.768;8.636;2023-04-08T09:34:09;11.60;97.80
59651;DHT22;45954;49.768;8.636;2023-04-08T09:36:37;11.40;98.00
59651;DHT22;45954;49.768;8.636;2023-04-08T09:39:04;11.40;98.00
59651;DHT22;45954;49.768;8.636;2023-04-08T09:41:36;11.50;98.10
59651;DHT22;45954;49.768;8.636;2023-04-08T09:44:05;11.60;98.00
59651;DHT22;45954;49.768;8.636;2023-04-08T09:46:36;11.40;97.80
59651;DHT22;45954;49.768;8.636;2023-04-08T09:52:12;11.40;97.50
59651;DHT22;45954;49.768;8.636;2023-04-08T09:54:54;11.40;97.50
59651;DHT22;45954;49.768;8.636;2023-04-08T09:57:30;11.50;97.60
59651;DHT22;45954;49.768;8.636;2023-04-08T10:00:12;11.50;97.50
59651;DHT22;45954;49.768;8.636;2023-04-08T10:06:01;11.60;97.60
59651;DHT22;45954;49.768;8.636;2023-04-08T10:08:29;11.50;97.40
59651;DHT22;45954;49.768;8.636;2023-04-08T10:10:56;11.50;96.80
59651;DHT22;45954;49.768;8.636;2023-04-08T10:13:23;11.50;97.30
59651;DHT22;45954;49.768;8.636;2023-04-08T10:15:50;11.70;97.00
59651;DHT22;45954;49.768;8.636;2023-04-08T10:20:48;11.70;97.10
59651;DHT22;45954;49.768;8.636;2023-04-08T10:23:18;11.70;96.40
59651;DHT22;45954;49.768;8.636;2023-04-08T10:25:47;11.90;97.10
59651;DHT22;45954;49.768;8.636;2023-04-08T10:30:54;11.80;97.00
59651;DHT22;45954;49.768;8.636;2023-04-08T10:33:30;11.50;97.30
59651;DHT22;45954;49.768;8.636;2023-04-08T10:38:38;11.60;97.10
59651;DHT22;45954;49.768;8.636;2023-04-08T10:41:06;11.60;96.80
59651;DHT22;45954;49.768;8.636;2023-04-08T10:43:35;11.60;97.00
59651;DHT22;45954;49.768;8.636;2023-04-08T10:46:04;11.70;96.50
59651;DHT22;45954;49.768;8.636;2023-04-08T10:48:31;11.50;97.20
59651;DHT22;45954;49.768;8.636;2023-04-08T10:51:00;11.60;96.80
59651;DHT22;45954;49.768;8.636;2023-04-08T10:53:31;11.80;96.50
59651;DHT22;45954;49.768;8.636;2023-04-08T10:56:11;12.10;95.40
59651;DHT22;45954;49.768;8.636;2023-04-08T10:58:51;12.00;94.80
59651;DHT22;45954;49.768;8.636;2023-04-08T11:01:19;12.00;95.20
59651;DHT22;45954;49.768;8.636;2023-04-08T11:03:45;12.20;95.20
59651;DHT22;45954;49.768;8.636;2023-04-08T11:06:11;12.30;94.70
59651;DHT22;45954;49.768;8.636;2023-04-08T11:08:37;12.10;94.30
59651;DHT22;45954;49.768;8.636;2023-04-08T11:11:04;12.30;95.00
59651;DHT22;45954;49.768;8.636;2023-04-08T11:13:45;12.60;94.50
59651;DHT22;45954;49.768;8.636;2023-04-08T11:16:11;12.70;94.80
59651;DHT22;45954;49.768;8.636;2023-04-08T11:18:39;13.10;94.30
59651;DHT22;45954;49.768;8.636;2023-04-08T11:21:09;12.90;94.30
59651;DHT22;45954;49.768;8.636;2023-04-08T11:23:36;12.70;94.30
59651;DHT22;45954;49.768;8.636;2023-04-08T11:26:03;12.60;94.70
59651;DHT22;45954;49.768;8.636;2023-04-08T11:28:29;12.70;94.90
59651;DHT22;45954;49.768;8.636;2023-04-08T11:30:56;12.60;95.60
59651;DHT22;45954;49.768;8.636;2023-04-08T11:33:25;12.60;94.60
59651;DHT22;45954;49.768;8.636;2023-04-08T11:35:54;12.90;96.00
59651;DHT22;45954;49.768;8.636;2023-04-08T11:38:23;12.90;95.50
59651;DHT22;45954;49.768;8.636;2023-04-08T11:40:53;13.20;95.00
59651;DHT22;45954;49.768;8.636;2023-04-08T11:43:20;13.40;95.30
59651;DHT22;45954;49.768;8.636;2023-04-08T11:45:46;13.70;95.40
59651;DHT22;45954;49.768;8.636;2023-04-08T11:48:14;13.40;95.10
59651;DHT22;45954;49.768;8.636;2023-04-08T11:50:42;13.50;95.40
59651;DHT22;45954;49.768;8.636;2023-04-08T11:53:28;13.50;95.40
59651;DHT22;45954;49.768;8.636;2023-04-08T11:55:54;13.50;95.40
59651;DHT22;45954;49.768;8.636;2023-04-08T11:58:20;13.40;95.30
59651;DHT22;45954;49.768;8.636;2023-04-08T12:00:46;13.30;96.00
59651;DHT22;45954;49.768;8.636;2023-04-08T12:03:13;13.30;96.50
59651;DHT22;45954;49.768;8.636;2023-04-08T12:05:39;13.20;96.80
59651;DHT22;45954;49.768;8.636;2023-04-08T12:08:05;13.20;96.70
59651;DHT22;45954;49.768;8.636;2023-04-08T12:10:31;13.10;96.70
59651;DHT22;45954;49.768;8.636;2023-04-08T12:12:57;13.30;96.50
59651;DHT22;45954;49.768;8.636;2023-04-08T12:15:23;13.50;96.50
59651;DHT22;45954;49.768;8.636;2023-04-08T12:17:49;13.60;96.40
59651;DHT22;45954;49.768;8.636;2023-04-08T12:20:15;13.70;96.30
59651;DHT22;45954;49.768;8.636;2023-04-08T12:22:41;13.80;96.20
59651;DHT22;45954;49.768;8.636;2023-04-08T12:25:07;14.00;96.30
59651;DHT22;45954;49.768;8.636;2023-04-08T12:27:33;14.20;96.10
59651;DHT22;45954;49.768;8.636;2023-04-08T12:30:00;14.10;95.90
59651;DHT22;45954;49.768;8.636;2023-04-08T12:32:27;14.00;96.50
59651;DHT22;45954;49.768;8.636;2023-04-08T12:34:53;13.90;96.30
59651;DHT22;45954;49.768;8.636;2023-04-08T12:37:19;13.70;96.20
59651;DHT22;45954;49.768;8.636;2023-04-08T12:39:45;13.70;96.20
59651;DHT22;45954;49.768;8.636;2023-04-08T12:42:12;14.00;96.60
59651;DHT22;45954;49.768;8.636;2023-04-08T12:44:39;14.10;96.20
59651;DHT22;45954;49.768;8.636;2023-04-08T12:47:05;14.20;95.90
59651;DHT22;45954;49.768;8.636;2023-04-08T12:49:31;14.90;96.10
59651;DHT22;45954;49.768;8.636;2023-04-08T12:51:57;15.60;95.60
59651;DHT22;45954;49.768;8.636;2023-04-08T12:54:23;15.80;93.90
59651;DHT22;45954;49.768;8.636;2023-04-08T12:56:49;16.00;93.40
59651;DHT22;45954;49.768;8.636;2023-04-08T12:59:15;15.70;94.90
59651;DHT22;45954;49.768;8.636;2023-04-08T13:01:41;15.80;93.80
59651;DHT22;45954;49.768;8.636;2023-04-08T13:04:07;16.10;94.50
59651;DHT22;45954;49.768;8.636;2023-04-08T13:06:34;16.20;93.30
59651;DHT22;45954;49.768;8.636;2023-04-08T13:09:00;16.10;93.40
59651;DHT22;45954;49.768;8.636;2023-04-08T13:11:26;16.00;93.70
59651;DHT22;45954;49.768;8.636;2023-04-08T13:13:52;15.60;93.70
59651;DHT22;45954;49.768;8.636;2023-04-08T13:16:18;15.50;94.30
59651;DHT22;45954;49.768;8.636;2023-04-08T13:18:44;15.80;94.40
59651;DHT22;45954;49.768;8.636;2023-04-08T13:21:11;15.20;94.10
59651;DHT22;45954;49.768;8.636;2023-04-08T13:23:36;15.40;94.60
59651;DHT22;45954;49.768;8.636;2023-04-08T13:26:03;15.80;95.10
59651;DHT22;45954;49.768;8.636;2023-04-08T13:28:29;15.50;94.80
59651;DHT22;45954;49.768;8.636;2023-04-08T13:30:55;15.70;94.90
59651;DHT22;45954;49.768;8.636;2023-04-08T13:33:20;15.90;93.90
59651;DHT22;45954;49.768;8.636;2023-04-08T13:35:46;15.60;93.80
59651;DHT22;45954;49.768;8.636;2023-04-08T13:38:12;15.70;94.50
59651;DHT22;45954;49.768;8.636;2023-04-08T13:40:38;15.50;94.20
59651;DHT22;45954;49.768;8.636;2023-04-08T13:43:04;15.50;94.40
59651;DHT22;45954;49.768;8.636;2023-04-08T13:45:30;15.50;94.80
59651;DHT22;45954;49.768;8.636;2023-04-08T13:47:56;15.80;94.00
59651;DHT22;45954;49.768;8.636;2023-04-08T13:50:22;15.70;94.10
59651;DHT22;45954;49.768;8.636;2023-04-08T13:52:48;15.60;93.90
59651;DHT22;45954;49.768;8.636;2023-04-08T13:55:14;15.70;94.50
59651;DHT22;45954;49.768;8.636;2023-04-08T13:57:40;16.70;92.60
59651;DHT22;45954;49.768;8.636;2023-04-08T14:00:07;16.90;93.00
59651;DHT22;45954;49.768;8.636;2023-04-08T14:02:33;16.90;92.10
59651;DHT22;45954;49.768;8.636;2023-04-08T14:04:59;16.50;92.50
59651;DHT22;45954;49.768;8.636;2023-04-08T14:07:25;16.00;93.70
59651;DHT22;45954;49.768;8.636;2023-04-08T14:09:51;15.90;93.20
59651;DHT22;45954;49.768;8.636;2023-04-08T14:12:16;16.00;93.20
59651;DHT22;45954;49.768;8.636;2023-04-08T14:14:42;15.90;94.10
59651;DHT22;45954;49.768;8.636;2023-04-08T14:17:08;15.80;94.00
59651;DHT22;45954;49.768;8.636;2023-04-08T14:19:34;15.70;94.30
59651;DHT22;45954;49.768;8.636;2023-04-08T14:22:00;15.50;94.30
59651;DHT22;45954;49.768;8.636;2023-04-08T14:24:26;15.50;94.10
59651;DHT22;45954;49.768;8.636;2023-04-08T14:26:52;15.00;94.30
59651;DHT22;45954;49.768;8.636;2023-04-08T14:29:17;15.00;94.60
59651;DHT22;45954;49.768;8.636;2023-04-08T14:31:43;14.70;95.00
59651;DHT22;45954;49.768;8.636;2023-04-08T14:34:09;14.70;95.30
59651;DHT22;45954;49.768;8.636;2023-04-08T14:36:35;14.50;95.70
59651;DHT22;45954;49.768;8.636;2023-04-08T14:39:01;14.50;95.90
59651;DHT22;45954;49.768;8.636;2023-04-08T14:41:27;14.40;96.00
59651;DHT22;45954;49.768;8.636;2023-04-08T14:43:53;14.50;96.10
59651;DHT22;45954;49.768;8.636;2023-04-08T14:46:20;14.50;96.30
59651;DHT22;45954;49.768;8.636;2023-04-08T14:48:46;14.30;96.30
59651;DHT22;45954;49.768;8.636;2023-04-08T14:51:12;14.30;96.90
59651;DHT22;45954;49.768;8.636;2023-04-08T14:53:38;14.30;97.00
59651;DHT22;45954;49.768;8.636;2023-04-08T14:56:04;14.30;97.00
59651;DHT22;45954;49.768;8.636;2023-04-08T14:58:30;14.30;97.10
59651;DHT22;45954;49.768;8.636;2023-04-08T15:00:56;14.10;97.70
59651;DHT22;45954;49.768;8.636;2023-04-08T15:03:22;14.00;97.80
59651;DHT22;45954;49.768;8.636;2023-04-08T15:05:48;13.90;98.00
59651;DHT22;45954;49.768;8.636;2023-04-08T15:08:14;14.00;98.30
59651;DHT22;45954;49.768;8.636;2023-04-08T15:10:40;13.90;98.50
59651;DHT22;45954;49.768;8.636;2023-04-08T15:13:06;13.90;98.40
59651;DHT22;45954;49.768;8.636;2023-04-08T15:15:31;14.00;98.30
59651;DHT22;45954;49.768;8.636;2023-04-08T15:17:57;14.00;98.50
59651;DHT22;45954;49.768;8.636;2023-04-08T15:20:23;14.00;98.50
59651;DHT22;45954;49.768;8.636;2023-04-08T15:22:49;13.80;98.30
59651;DHT22;45954;49.768;8.636;2023-04-08T15:25:15;13.90;98.30
59651;DHT22;45954;49.768;8.636;2023-04-08T15:27:41;13.80;99.00
59651;DHT22;45954;49.768;8.636;2023-04-08T15:30:08;13.70;98.80
59651;DHT22;45954;49.768;8.636;2023-04-08T15:32:34;13.90;98.90
59651;DHT22;45954;49.768;8.636;2023-04-08T15:35:00;14.10;98.80
59651;DHT22;45954;49.768;8.636;2023-04-08T15:37:26;14.40;98.80
59651;DHT22;45954;49.768;8.636;2023-04-08T15:39:53;14.20;98.50
59651;DHT22;45954;49.768;8.636;2023-04-08T15:42:19;14.20;98.90
59651;DHT22;45954;49.768;8.636;2023-04-08T15:44:45;14.60;98.30
59651;DHT22;45954;49.768;8.636;2023-04-08T15:47:11;15.20;97.40
59651;DHT22;45954;49.768;8.636;2023-04-08T15:49:37;15.50;97.00
59651;DHT22;45954;49.768;8.636;2023-04-08T15:52:04;15.70;96.70
59651;DHT22;45954;49.768;8.636;2023-04-08T15:54:32;16.40;96.20